sensor_id;sensor_type;location;lat;lon;timestamp;P1;durP1;ratioP1;P2;durP2;ratioP2
71715;SDS011;59568;52.128;5.434;2023-04-01T00:00:33;13.48;;;4.50;;
71715;SDS011;59568;52.128;5.434;2023-04-01T00:03:00;14.30;;;4.73;;
71715;SDS011;59568;52.128;5.434;2023-04-01T00:05:27;11.55;;;4.57;;
71715;SDS011;59568;52.128;5.434;2023-04-01T00:07:55;14.88;;;6.07;;
71715;SDS011;59568;52.128;5.434;2023-04-01T00:10:21;17.65;;;6.03;;
71715;SDS011;59568;52.128;5.434;2023-04-01T00:12:48;20.35;;;5.55;;
71715;SDS011;59568;52.128;5.434;2023-04-01T00:15:15;15.90;;;5.20;;
71715;SDS011;59568;52.128;5.434;2023-04-01T00:17:43;15.68;;;5.60;;
71715;SDS011;59568;52.128;5.434;2023-04-01T00:20:10;18.00;;;5.07;;
71715;SDS011;59568;52.128;5.434;2023-04-01T00:22:37;15.27;;;5.15;;
71715;SDS011;59568;52.128;5.434;2023-04-01T00:25:04;15.75;;;5.80;;
71715;SDS011;59568;52.128;5.434;2023-04-01T00:27:31;15.80;;;5.53;;
71715;SDS011;59568;52.128;5.434;2023-04-01T00:29:58;21.75;;;5.93;;
71715;SDS011;59568;52.128;5.434;2023-04-01T00:32:24;19.48;;;5.82;;
71715;SDS011;59568;52.128;5.434;2023-04-01T00:34:52;18.08;;;5.63;;
71715;SDS011;59568;52.128;5.434;2023-04-01T00:37:19;15.57;;;5.15;;
71715;SDS011;59568;52.128;5.434;2023-04-01T00:39:47;16.57;;;5.43;;
71715;SDS011;59568;52.128;5.434;2023-04-01T00:42:14;12.98;;;5.05;;
71715;SDS011;59568;52.128;5.434;2023-04-01T00:44:40;18.08;;;5.38;;
71715;SDS011;59568;52.128;5.434;2023-04-01T00:47:10;20.88;;;5.60;;
71715;SDS011;59568;52.128;5.434;2023-04-01T00:49:39;22.23;;;5.75;;
71715;SDS011;59568;52.128;5.434;2023-04-01T00:52:08;21.30;;;6.97;;
71715;SDS011;59568;52.128;5.434;2023-04-01T00:54:39;25.48;;;6.55;;
71715;SDS011;59568;52.128;5.434;2023-04-01T00:57:10;25.77;;;9.15;;
71715;SDS011;59568;52.128;5.434;2023-04-01T00:59:43;22.60;;;6.82;;
71715;SDS011;59568;52.128;5.434;2023-04-01T01:02:16;18.73;;;7.35;;
71715;SDS011;59568;52.128;5.434;2023-04-01T01:04:44;29.93;;;7.30;;
71715;SDS011;59568;52.128;5.434;2023-04-01T01:10:21;18.52;;;5.68;;
71715;SDS011;59568;52.128;5.434;2023-04-01T01:15:47;22.67;;;6.35;;
71715;SDS011;59568;52.128;5.434;2023-04-01T01:18:27;19.07;;;5.50;;
71715;SDS011;59568;52.128;5.434;2023-04-01T01:31:58;15.07;;;6.17;;
71715;SDS011;59568;52.128;5.434;2023-04-01T01:37:17;22.40;;;6.60;;
71715;SDS011;59568;52.128;5.434;2023-04-01T01:39:48;20.88;;;6.20;;
71715;SDS011;59568;52.128;5.434;2023-04-01T01:42:21;11.80;;;4.35;;
71715;SDS011;59568;52.128;5.434;2023-04-01T01:44:51;15.13;;;3.97;;
71715;SDS011;59568;52.128;5.434;2023-04-01T01:47:19;14.00;;;4.22;;
71715;SDS011;59568;52.128;5.434;2023-04-01T01:49:48;11.90;;;3.80;;
71715;SDS011;59568;52.128;5.434;2023-04-01T01:52:17;8.02;;;3.22;;
71715;SDS011;59568;52.128;5.434;2023-04-01T01:54:48;8.63;;;3.10;;
71715;SDS011;59568;52.128;5.434;2023-04-01T01:57:19;8.37;;;2.97;;
71715;SDS011;59568;52.128;5.434;2023-04-01T01:59:49;10.50;;;2.80;;
71715;SDS011;59568;52.128;5.434;2023-04-01T02:02:21;6.57;;;2.55;;
71715;SDS011;59568;52.128;5.434;2023-04-01T02:04:50;6.88;;;2.58;;
71715;SDS011;59568;52.128;5.434;2023-04-01T02:07:22;8.38;;;2.92;;
71715;SDS011;59568;52.128;5.434;2023-04-01T02:09:52;7.93;;;2.43;;
71715;SDS011;59568;52.128;5.434;2023-04-01T02:12:19;7.05;;;2.35;;
71715;SDS011;59568;52.128;5.434;2023-04-01T02:14:51;5.95;;;1.95;;
71715;SDS011;59568;52.128;5.434;2023-04-01T02:17:31;7.40;;;2.30;;
71715;SDS011;59568;52.128;5.434;2023-04-01T02:20:07;6.15;;;1.98;;
71715;SDS011;59568;52.128;5.434;2023-04-01T02:22:38;4.77;;;1.97;;
71715;SDS011;59568;52.128;5.434;2023-04-01T02:25:11;4.00;;;1.35;;
71715;SDS011;59568;52.128;5.434;2023-04-01T02:27:42;7.10;;;2.42;;
71715;SDS011;59568;52.128;5.434;2023-04-01T02:30:12;8.55;;;2.08;;
71715;SDS011;59568;52.128;5.434;2023-04-01T02:32:41;4.25;;;1.80;;
71715;SDS011;59568;52.128;5.434;2023-04-01T02:35:09;4.60;;;2.00;;
71715;SDS011;59568;52.128;5.434;2023-04-01T02:37:38;9.95;;;2.22;;
71715;SDS011;59568;52.128;5.434;2023-04-01T02:40:10;7.30;;;1.65;;
71715;SDS011;59568;52.128;5.434;2023-04-01T02:42:39;6.57;;;2.00;;
71715;SDS011;59568;52.128;5.434;2023-04-01T02:45:06;6.00;;;2.13;;
71715;SDS011;59568;52.128;5.434;2023-04-01T02:47:33;5.70;;;2.50;;
71715;SDS011;59568;52.128;5.434;2023-04-01T02:50:00;4.25;;;2.30;;
71715;SDS011;59568;52.128;5.434;2023-04-01T02:52:28;4.65;;;1.98;;
71715;SDS011;59568;52.128;5.434;2023-04-01T02:54:56;6.57;;;2.58;;
71715;SDS011;59568;52.128;5.434;2023-04-01T02:57:26;8.00;;;2.38;;
71715;SDS011;59568;52.128;5.434;2023-04-01T02:59:53;7.50;;;2.40;;
71715;SDS011;59568;52.128;5.434;2023-04-01T03:02:20;6.20;;;2.33;;
71715;SDS011;59568;52.128;5.434;2023-04-01T03:04:47;6.88;;;2.50;;
71715;SDS011;59568;52.128;5.434;2023-04-01T03:07:13;5.97;;;2.20;;
71715;SDS011;59568;52.128;5.434;2023-04-01T03:09:40;9.60;;;2.33;;
71715;SDS011;59568;52.128;5.434;2023-04-01T03:12:07;7.33;;;1.93;;
71715;SDS011;59568;52.128;5.434;2023-04-01T03:14:33;4.18;;;1.52;;
71715;SDS011;59568;52.128;5.434;2023-04-01T03:17:00;8.35;;;1.77;;
71715;SDS011;59568;52.128;5.434;2023-04-01T03:19:27;2.92;;;1.45;;
71715;SDS011;59568;52.128;5.434;2023-04-01T03:21:53;5.55;;;1.92;;
71715;SDS011;59568;52.128;5.434;2023-04-01T03:24:20;4.40;;;1.50;;
71715;SDS011;59568;52.128;5.434;2023-04-01T03:26:46;6.03;;;1.42;;
71715;SDS011;59568;52.128;5.434;2023-04-01T03:29:15;3.90;;;1.30;;
71715;SDS011;59568;52.128;5.434;2023-04-01T03:31:42;7.50;;;1.73;;
71715;SDS011;59568;52.128;5.434;2023-04-01T03:34:08;4.18;;;1.40;;
71715;SDS011;59568;52.128;5.434;2023-04-01T03:36:36;5.03;;;1.27;;
71715;SDS011;59568;52.128;5.434;2023-04-01T03:39:03;3.80;;;1.63;;
71715;SDS011;59568;52.128;5.434;2023-04-01T03:41:30;3.38;;;1.45;;
71715;SDS011;59568;52.128;5.434;2023-04-01T03:43:57;4.50;;;1.70;;
71715;SDS011;59568;52.128;5.434;2023-04-01T03:46:23;4.72;;;2.00;;
71715;SDS011;59568;52.128;5.434;2023-04-01T03:48:50;4.47;;;2.10;;
71715;SDS011;59568;52.128;5.434;2023-04-01T03:51:16;5.45;;;2.25;;
71715;SDS011;59568;52.128;5.434;2023-04-01T03:53:43;6.93;;;2.72;;
71715;SDS011;59568;52.128;5.434;2023-04-01T03:56:10;8.30;;;3.03;;
71715;SDS011;59568;52.128;5.434;2023-04-01T03:58:37;11.25;;;3.92;;
71715;SDS011;59568;52.128;5.434;2023-04-01T04:01:18;10.13;;;3.67;;
71715;SDS011;59568;52.128;5.434;2023-04-01T04:03:47;7.65;;;3.70;;
71715;SDS011;59568;52.128;5.434;2023-04-01T04:06:16;9.52;;;3.95;;
71715;SDS011;59568;52.128;5.434;2023-04-01T04:08:44;9.20;;;4.45;;
71715;SDS011;59568;52.128;5.434;2023-04-01T04:11:11;12.43;;;4.32;;
71715;SDS011;59568;52.128;5.434;2023-04-01T04:13:38;11.03;;;4.13;;
71715;SDS011;59568;52.128;5.434;2023-04-01T04:16:04;11.27;;;4.05;;
71715;SDS011;59568;52.128;5.434;2023-04-01T04:18:31;9.65;;;3.90;;
71715;SDS011;59568;52.128;5.434;2023-04-01T04:20:58;10.35;;;3.95;;
71715;SDS011;59568;52.128;5.434;2023-04-01T04:23:25;9.25;;;4.72;;
71715;SDS011;59568;52.128;5.434;2023-04-01T04:25:56;9.23;;;4.17;;
71715;SDS011;59568;52.128;5.434;2023-04-01T04:28:25;13.95;;;4.43;;
71715;SDS011;59568;52.128;5.434;2023-04-01T04:30:53;13.13;;;3.92;;
71715;SDS011;59568;52.128;5.434;2023-04-01T04:33:20;9.60;;;3.63;;
71715;SDS011;59568;52.128;5.434;2023-04-01T04:35:48;7.80;;;3.42;;
71715;SDS011;59568;52.128;5.434;2023-04-01T04:38:15;10.07;;;2.97;;
71715;SDS011;59568;52.128;5.434;2023-04-01T04:40:43;6.00;;;2.55;;
71715;SDS011;59568;52.128;5.434;2023-04-01T04:43:10;8.52;;;3.35;;
71715;SDS011;59568;52.128;5.434;2023-04-01T04:45:37;7.18;;;3.22;;
71715;SDS011;59568;52.128;5.434;2023-04-01T04:48:04;7.97;;;3.17;;
71715;SDS011;59568;52.128;5.434;2023-04-01T04:50:33;6.83;;;3.03;;
71715;SDS011;59568;52.128;5.434;2023-04-01T04:52:59;8.57;;;2.92;;
71715;SDS011;59568;52.128;5.434;2023-04-01T04:55:26;8.73;;;3.13;;
71715;SDS011;59568;52.128;5.434;2023-04-01T04:57:53;10.23;;;2.83;;
71715;SDS011;59568;52.128;5.434;2023-04-01T05:00:19;6.72;;;3.20;;
71715;SDS011;59568;52.128;5.434;2023-04-01T05:02:46;9.57;;;2.93;;
71715;SDS011;59568;52.128;5.434;2023-04-01T05:05:13;8.38;;;2.67;;
71715;SDS011;59568;52.128;5.434;2023-04-01T05:07:40;7.80;;;2.75;;
71715;SDS011;59568;52.128;5.434;2023-04-01T05:10:08;10.30;;;2.70;;
71715;SDS011;59568;52.128;5.434;2023-04-01T05:12:35;5.38;;;2.13;;
71715;SDS011;59568;52.128;5.434;2023-04-01T05:15:05;6.07;;;2.30;;
71715;SDS011;59568;52.128;5.434;2023-04-01T05:17:32;6.18;;;2.17;;
71715;SDS011;59568;52.128;5.434;2023-04-01T05:19:59;7.20;;;2.35;;
71715;SDS011;59568;52.128;5.434;2023-04-01T05:22:27;5.20;;;1.98;;
71715;SDS011;59568;52.128;5.434;2023-04-01T05:24:53;6.82;;;2.33;;
71715;SDS011;59568;52.128;5.434;2023-04-01T05:27:20;7.23;;;3.27;;
71715;SDS011;59568;52.128;5.434;2023-04-01T05:29:47;7.43;;;3.30;;
71715;SDS011;59568;52.128;5.434;2023-04-01T05:32:14;7.50;;;2.90;;
71715;SDS011;59568;52.128;5.434;2023-04-01T05:34:41;6.88;;;3.03;;
71715;SDS011;59568;52.128;5.434;2023-04-01T05:37:07;7.85;;;2.80;;
71715;SDS011;59568;52.128;5.434;2023-04-01T05:39:37;6.23;;;2.70;;
71715;SDS011;59568;52.128;5.434;2023-04-01T05:42:07;8.63;;;3.20;;
71715;SDS011;59568;52.128;5.434;2023-04-01T05:44:56;6.93;;;2.60;;
71715;SDS011;59568;52.128;5.434;2023-04-01T05:47:22;7.68;;;2.80;;
71715;SDS011;59568;52.128;5.434;2023-04-01T05:49:51;6.28;;;2.63;;
71715;SDS011;59568;52.128;5.434;2023-04-01T05:52:24;4.80;;;1.93;;
71715;SDS011;59568;52.128;5.434;2023-04-01T05:54:51;4.45;;;1.85;;
71715;SDS011;59568;52.128;5.434;2023-04-01T05:57:18;5.07;;;2.00;;
71715;SDS011;59568;52.128;5.434;2023-04-01T05:59:45;4.28;;;1.65;;
71715;SDS011;59568;52.128;5.434;2023-04-01T06:02:19;4.82;;;1.73;;
71715;SDS011;59568;52.128;5.434;2023-04-01T06:05:09;3.57;;;1.23;;
71715;SDS011;59568;52.128;5.434;2023-04-01T06:07:44;4.20;;;1.52;;
71715;SDS011;59568;52.128;5.434;2023-04-01T06:10:12;3.85;;;1.25;;
71715;SDS011;59568;52.128;5.434;2023-04-01T06:15:34;7.63;;;1.55;;
71715;SDS011;59568;52.128;5.434;2023-04-01T06:20:42;3.53;;;1.20;;
71715;SDS011;59568;52.128;5.434;2023-04-01T06:23:32;4.55;;;1.80;;
71715;SDS011;59568;52.128;5.434;2023-04-01T06:26:23;4.35;;;1.52;;
71715;SDS011;59568;52.128;5.434;2023-04-01T06:43:20;3.88;;;1.52;;
71715;SDS011;59568;52.128;5.434;2023-04-01T06:52:00;5.40;;;1.95;;
71715;SDS011;59568;52.128;5.434;2023-04-01T06:54:38;5.05;;;1.50;;
71715;SDS011;59568;52.128;5.434;2023-04-01T06:57:31;3.72;;;1.30;;
71715;SDS011;59568;52.128;5.434;2023-04-01T07:00:03;3.50;;;1.43;;
71715;SDS011;59568;52.128;5.434;2023-04-01T07:02:41;2.33;;;0.95;;
71715;SDS011;59568;52.128;5.434;2023-04-01T07:05:37;2.65;;;0.77;;
71715;SDS011;59568;52.128;5.434;2023-04-01T07:08:06;2.83;;;0.75;;
71715;SDS011;59568;52.128;5.434;2023-04-01T07:19:39;5.68;;;1.23;;
71715;SDS011;59568;52.128;5.434;2023-04-01T07:25:46;4.00;;;1.75;;
71715;SDS011;59568;52.128;5.434;2023-04-01T07:28:17;4.93;;;1.73;;
71715;SDS011;59568;52.128;5.434;2023-04-01T07:33:15;5.88;;;2.05;;
71715;SDS011;59568;52.128;5.434;2023-04-01T07:35:47;4.97;;;1.90;;
71715;SDS011;59568;52.128;5.434;2023-04-01T07:43:49;3.95;;;1.73;;
71715;SDS011;59568;52.128;5.434;2023-04-01T07:46:32;5.93;;;2.28;;
71715;SDS011;59568;52.128;5.434;2023-04-01T07:54:32;6.97;;;2.30;;
71715;SDS011;59568;52.128;5.434;2023-04-01T08:08:26;5.63;;;2.60;;
71715;SDS011;59568;52.128;5.434;2023-04-01T08:14:04;6.55;;;2.33;;
71715;SDS011;59568;52.128;5.434;2023-04-01T08:19:01;5.72;;;2.42;;
71715;SDS011;59568;52.128;5.434;2023-04-01T08:21:38;5.47;;;2.37;;
71715;SDS011;59568;52.128;5.434;2023-04-01T08:24:44;5.65;;;2.30;;
71715;SDS011;59568;52.128;5.434;2023-04-01T08:27:18;5.57;;;2.50;;
71715;SDS011;59568;52.128;5.434;2023-04-01T08:29:51;5.47;;;2.38;;
71715;SDS011;59568;52.128;5.434;2023-04-01T08:32:28;6.05;;;2.50;;
71715;SDS011;59568;52.128;5.434;2023-04-01T08:38:05;8.70;;;3.20;;
71715;SDS011;59568;52.128;5.434;2023-04-01T08:43:33;6.95;;;2.67;;
71715;SDS011;59568;52.128;5.434;2023-04-01T08:46:19;8.30;;;3.53;;
71715;SDS011;59568;52.128;5.434;2023-04-01T08:48:57;7.43;;;2.80;;
71715;SDS011;59568;52.128;5.434;2023-04-01T08:51:48;7.80;;;3.38;;
71715;SDS011;59568;52.128;5.434;2023-04-01T09:08:20;9.60;;;3.60;;
71715;SDS011;59568;52.128;5.434;2023-04-01T09:11:03;7.97;;;3.72;;
71715;SDS011;59568;52.128;5.434;2023-04-01T09:13:42;8.40;;;3.88;;
71715;SDS011;59568;52.128;5.434;2023-04-01T09:16:30;7.30;;;3.23;;
71715;SDS011;59568;52.128;5.434;2023-04-01T09:27:17;6.25;;;2.83;;
71715;SDS011;59568;52.128;5.434;2023-04-01T09:35:48;5.60;;;2.60;;
71715;SDS011;59568;52.128;5.434;2023-04-01T09:41:00;6.95;;;3.08;;
71715;SDS011;59568;52.128;5.434;2023-04-01T09:49:34;7.15;;;3.22;;
71715;SDS011;59568;52.128;5.434;2023-04-01T09:52:24;7.03;;;3.17;;
71715;SDS011;59568;52.128;5.434;2023-04-01T09:55:06;7.30;;;3.65;;
71715;SDS011;59568;52.128;5.434;2023-04-01T10:28:36;5.88;;;3.65;;
71715;SDS011;59568;52.128;5.434;2023-04-01T10:31:47;6.57;;;2.97;;
71715;SDS011;59568;52.128;5.434;2023-04-01T10:34:51;6.72;;;3.15;;
71715;SDS011;59568;52.128;5.434;2023-04-01T10:37:56;9.25;;;3.03;;
71715;SDS011;59568;52.128;5.434;2023-04-01T11:01:05;4.82;;;2.33;;
71715;SDS011;59568;52.128;5.434;2023-04-01T11:04:16;5.50;;;2.42;;
71715;SDS011;59568;52.128;5.434;2023-04-01T11:10:20;3.63;;;2.00;;
71715;SDS011;59568;52.128;5.434;2023-04-01T11:13:10;5.15;;;1.98;;
71715;SDS011;59568;52.128;5.434;2023-04-01T11:21:44;3.33;;;1.33;;
71715;SDS011;59568;52.128;5.434;2023-04-01T11:24:34;2.80;;;1.33;;
71715;SDS011;59568;52.128;5.434;2023-04-01T11:27:12;2.88;;;1.23;;
71715;SDS011;59568;52.128;5.434;2023-04-01T11:33:04;1.83;;;0.88;;
71715;SDS011;59568;52.128;5.434;2023-04-01T11:35:45;1.65;;;0.80;;
71715;SDS011;59568;52.128;5.434;2023-04-01T11:38:29;1.00;;;0.43;;
71715;SDS011;59568;52.128;5.434;2023-04-01T11:41:13;1.50;;;0.40;;
71715;SDS011;59568;52.128;5.434;2023-04-01T11:43:54;0.90;;;0.40;;
71715;SDS011;59568;52.128;5.434;2023-04-01T11:46:39;1.10;;;0.40;;
71715;SDS011;59568;52.128;5.434;2023-04-01T11:49:26;2.10;;;0.85;;
71715;SDS011;59568;52.128;5.434;2023-04-01T11:52:01;1.20;;;0.40;;
71715;SDS011;59568;52.128;5.434;2023-04-01T12:18:00;3.70;;;1.63;;
71715;SDS011;59568;52.128;5.434;2023-04-01T12:20:44;3.50;;;1.80;;
71715;SDS011;59568;52.128;5.434;2023-04-01T12:29:08;5.07;;;2.47;;
71715;SDS011;59568;52.128;5.434;2023-04-01T12:32:41;5.90;;;2.53;;
71715;SDS011;59568;52.128;5.434;2023-04-01T12:38:24;6.82;;;3.10;;
71715;SDS011;59568;52.128;5.434;2023-04-01T12:46:38;9.70;;;4.75;;
71715;SDS011;59568;52.128;5.434;2023-04-01T13:01:19;10.30;;;4.93;;
71715;SDS011;59568;52.128;5.434;2023-04-01T13:06:49;10.77;;;5.28;;
71715;SDS011;59568;52.128;5.434;2023-04-01T13:15:22;10.30;;;4.75;;
71715;SDS011;59568;52.128;5.434;2023-04-01T13:25:41;6.18;;;2.95;;
71715;SDS011;59568;52.128;5.434;2023-04-01T13:28:46;5.95;;;2.78;;
71715;SDS011;59568;52.128;5.434;2023-04-01T13:31:31;7.10;;;2.93;;
71715;SDS011;59568;52.128;5.434;2023-04-01T13:34:20;5.97;;;2.50;;
71715;SDS011;59568;52.128;5.434;2023-04-01T13:42:37;4.13;;;1.70;;
71715;SDS011;59568;52.128;5.434;2023-04-01T13:45:49;4.83;;;2.00;;
71715;SDS011;59568;52.128;5.434;2023-04-01T14:01:42;3.65;;;1.52;;
71715;SDS011;59568;52.128;5.434;2023-04-01T14:06:57;4.25;;;1.80;;
71715;SDS011;59568;52.128;5.434;2023-04-01T14:12:42;7.67;;;2.60;;
71715;SDS011;59568;52.128;5.434;2023-04-01T14:21:41;6.88;;;3.30;;
71715;SDS011;59568;52.128;5.434;2023-04-01T14:24:22;7.20;;;3.50;;
71715;SDS011;59568;52.128;5.434;2023-04-01T14:32:47;5.30;;;2.70;;
71715;SDS011;59568;52.128;5.434;2023-04-01T14:49:52;6.10;;;2.70;;
71715;SDS011;59568;52.128;5.434;2023-04-01T14:52:32;4.72;;;2.53;;
71715;SDS011;59568;52.128;5.434;2023-04-01T14:55:28;6.00;;;3.07;;
71715;SDS011;59568;52.128;5.434;2023-04-01T14:58:00;5.65;;;2.90;;
71715;SDS011;59568;52.128;5.434;2023-04-01T15:31:13;8.05;;;2.50;;
71715;SDS011;59568;52.128;5.434;2023-04-01T15:39:09;5.28;;;2.78;;
71715;SDS011;59568;52.128;5.434;2023-04-01T15:42:04;4.15;;;2.22;;
71715;SDS011;59568;52.128;5.434;2023-04-01T15:55:43;4.30;;;2.00;;
71715;SDS011;59568;52.128;5.434;2023-04-01T16:04:24;4.53;;;2.37;;
71715;SDS011;59568;52.128;5.434;2023-04-01T16:10:13;4.07;;;2.40;;
71715;SDS011;59568;52.128;5.434;2023-04-01T16:18:45;4.07;;;2.60;;
71715;SDS011;59568;52.128;5.434;2023-04-01T16:22:09;4.78;;;2.50;;
71715;SDS011;59568;52.128;5.434;2023-04-01T16:26:56;4.77;;;2.53;;
71715;SDS011;59568;52.128;5.434;2023-04-01T16:29:50;4.15;;;2.47;;
71715;SDS011;59568;52.128;5.434;2023-04-01T16:38:31;4.60;;;2.47;;
71715;SDS011;59568;52.128;5.434;2023-04-01T16:41:11;5.38;;;2.50;;
71715;SDS011;59568;52.128;5.434;2023-04-01T16:57:01;4.40;;;2.92;;
71715;SDS011;59568;52.128;5.434;2023-04-01T16:59:39;5.30;;;2.70;;
71715;SDS011;59568;52.128;5.434;2023-04-01T17:02:20;4.75;;;2.75;;
71715;SDS011;59568;52.128;5.434;2023-04-01T17:05:00;5.68;;;2.90;;
71715;SDS011;59568;52.128;5.434;2023-04-01T17:07:40;5.78;;;2.83;;
71715;SDS011;59568;52.128;5.434;2023-04-01T17:10:35;5.75;;;3.15;;
71715;SDS011;59568;52.128;5.434;2023-04-01T17:13:34;4.47;;;2.80;;
71715;SDS011;59568;52.128;5.434;2023-04-01T17:16:14;5.32;;;2.70;;
71715;SDS011;59568;52.128;5.434;2023-04-01T17:27:13;5.17;;;2.57;;
71715;SDS011;59568;52.128;5.434;2023-04-01T17:30:13;3.53;;;1.95;;
71715;SDS011;59568;52.128;5.434;2023-04-01T17:35:32;3.80;;;2.28;;
71715;SDS011;59568;52.128;5.434;2023-04-01T17:38:19;4.38;;;2.25;;
71715;SDS011;59568;52.128;5.434;2023-04-01T17:46:40;4.03;;;2.33;;
71715;SDS011;59568;52.128;5.434;2023-04-01T17:49:23;3.45;;;2.42;;
71715;SDS011;59568;52.128;5.434;2023-04-01T17:54:41;3.87;;;2.60;;
71715;SDS011;59568;52.128;5.434;2023-04-01T18:00:16;4.43;;;2.55;;
71715;SDS011;59568;52.128;5.434;2023-04-01T18:14:07;6.50;;;3.08;;
71715;SDS011;59568;52.128;5.434;2023-04-01T18:22:19;5.03;;;2.90;;
71715;SDS011;59568;52.128;5.434;2023-04-01T18:27:40;4.78;;;3.22;;
71715;SDS011;59568;52.128;5.434;2023-04-01T18:30:17;5.15;;;3.13;;
71715;SDS011;59568;52.128;5.434;2023-04-01T18:38:20;5.15;;;3.45;;
71715;SDS011;59568;52.128;5.434;2023-04-01T18:46:49;5.15;;;3.65;;
71715;SDS011;59568;52.128;5.434;2023-04-01T18:49:41;5.97;;;3.10;;
71715;SDS011;59568;52.128;5.434;2023-04-01T18:52:22;6.88;;;4.05;;
71715;SDS011;59568;52.128;5.434;2023-04-01T18:57:27;5.90;;;4.07;;
71715;SDS011;59568;52.128;5.434;2023-04-01T19:00:08;5.38;;;3.70;;
71715;SDS011;59568;52.128;5.434;2023-04-01T19:02:43;5.60;;;3.90;;
71715;SDS011;59568;52.128;5.434;2023-04-01T19:08:17;5.65;;;3.83;;
71715;SDS011;59568;52.128;5.434;2023-04-01T19:16:26;6.80;;;3.10;;
71715;SDS011;59568;52.128;5.434;2023-04-01T19:18:59;5.43;;;3.83;;
71715;SDS011;59568;52.128;5.434;2023-04-01T19:21:41;4.50;;;2.90;;
71715;SDS011;59568;52.128;5.434;2023-04-01T19:35:19;5.20;;;2.78;;
71715;SDS011;59568;52.128;5.434;2023-04-01T19:43:48;6.73;;;3.90;;
71715;SDS011;59568;52.128;5.434;2023-04-01T19:51:46;5.25;;;3.55;;
71715;SDS011;59568;52.128;5.434;2023-04-01T19:54:26;4.88;;;3.20;;
71715;SDS011;59568;52.128;5.434;2023-04-01T19:57:23;6.20;;;3.57;;
71715;SDS011;59568;52.128;5.434;2023-04-01T19:59:54;5.22;;;3.88;;
71715;SDS011;59568;52.128;5.434;2023-04-01T20:02:42;5.63;;;4.05;;
71715;SDS011;59568;52.128;5.434;2023-04-01T20:08:34;8.02;;;4.03;;
71715;SDS011;59568;52.128;5.434;2023-04-01T20:14:23;7.82;;;5.03;;
71715;SDS011;59568;52.128;5.434;2023-04-01T20:16:59;6.88;;;4.78;;
71715;SDS011;59568;52.128;5.434;2023-04-01T20:19:42;8.32;;;4.60;;
71715;SDS011;59568;52.128;5.434;2023-04-01T20:22:16;6.80;;;4.85;;
71715;SDS011;59568;52.128;5.434;2023-04-01T20:24:52;6.77;;;4.60;;
71715;SDS011;59568;52.128;5.434;2023-04-01T20:27:26;8.20;;;6.40;;
71715;SDS011;59568;52.128;5.434;2023-04-01T20:30:17;9.30;;;4.90;;
71715;SDS011;59568;52.128;5.434;2023-04-01T20:35:25;10.23;;;5.60;;
71715;SDS011;59568;52.128;5.434;2023-04-01T20:41:28;8.25;;;5.10;;
71715;SDS011;59568;52.128;5.434;2023-04-01T20:44:47;8.68;;;5.15;;
71715;SDS011;59568;52.128;5.434;2023-04-01T20:52:57;11.30;;;5.57;;
71715;SDS011;59568;52.128;5.434;2023-04-01T20:58:32;10.55;;;6.07;;
71715;SDS011;59568;52.128;5.434;2023-04-01T21:09:40;8.93;;;5.70;;
71715;SDS011;59568;52.128;5.434;2023-04-01T21:29:45;6.78;;;4.18;;
71715;SDS011;59568;52.128;5.434;2023-04-01T21:34:40;7.67;;;4.37;;
71715;SDS011;59568;52.128;5.434;2023-04-01T21:37:12;7.65;;;3.97;;
71715;SDS011;59568;52.128;5.434;2023-04-01T21:45:15;6.57;;;4.05;;
71715;SDS011;59568;52.128;5.434;2023-04-01T21:50:47;8.50;;;4.45;;
71715;SDS011;59568;52.128;5.434;2023-04-01T21:53:44;7.50;;;4.30;;
71715;SDS011;59568;52.128;5.434;2023-04-01T21:56:34;8.85;;;4.30;;
71715;SDS011;59568;52.128;5.434;2023-04-01T22:02:32;6.80;;;3.63;;
71715;SDS011;59568;52.128;5.434;2023-04-01T22:05:18;8.57;;;4.03;;
71715;SDS011;59568;52.128;5.434;2023-04-01T22:08:20;8.20;;;4.47;;
71715;SDS011;59568;52.128;5.434;2023-04-01T22:11:16;9.55;;;4.75;;
71715;SDS011;59568;52.128;5.434;2023-04-01T22:14:08;8.18;;;4.45;;
71715;SDS011;59568;52.128;5.434;2023-04-01T22:22:28;8.07;;;4.72;;
71715;SDS011;59568;52.128;5.434;2023-04-01T22:25:14;7.93;;;4.28;;
71715;SDS011;59568;52.128;5.434;2023-04-01T22:30:24;7.93;;;4.00;;
71715;SDS011;59568;52.128;5.434;2023-04-01T22:33:06;8.75;;;4.75;;
71715;SDS011;59568;52.128;5.434;2023-04-01T22:41:10;8.32;;;4.55;;
71715;SDS011;59568;52.128;5.434;2023-04-01T22:43:57;9.60;;;4.93;;
71715;SDS011;59568;52.128;5.434;2023-04-01T22:51:54;9.80;;;5.22;;
71715;SDS011;59568;52.128;5.434;2023-04-01T22:54:32;9.43;;;6.15;;
71715;SDS011;59568;52.128;5.434;2023-04-01T23:00:23;9.02;;;5.43;;
71715;SDS011;59568;52.128;5.434;2023-04-01T23:11:35;13.00;;;6.60;;
71715;SDS011;59568;52.128;5.434;2023-04-01T23:19:33;10.05;;;6.28;;
71715;SDS011;59568;52.128;5.434;2023-04-01T23:24:55;9.10;;;5.90;;
71715;SDS011;59568;52.128;5.434;2023-04-01T23:27:42;9.82;;;6.43;;
71715;SDS011;59568;52.128;5.434;2023-04-01T23:38:23;12.13;;;6.50;;
71715;SDS011;59568;52.128;5.434;2023-04-01T23:40:52;11.52;;;6.55;;
71715;SDS011;59568;52.128;5.434;2023-04-01T23:43:22;13.73;;;6.97;;
71715;SDS011;59568;52.128;5.434;2023-04-01T23:45:50;13.57;;;7.20;;
71715;SDS011;59568;52.128;5.434;2023-04-01T23:48:16;14.15;;;7.55;;
71715;SDS011;59568;52.128;5.434;2023-04-01T23:50:45;14.30;;;7.70;;
71715;SDS011;59568;52.128;5.434;2023-04-01T23:53:16;15.25;;;7.88;;
71715;SDS011;59568;52.128;5.434;2023-04-01T23:55:45;15.65;;;7.38;;
71715;SDS011;59568;52.128;5.434;2023-04-01T23:58:18;13.05;;;5.68;;
